Time;durP1;ratioP1;P1;durP2;ratioP2;P2;SDS_P1;SDS_P2;PMS_P1;PMS_P2;Temp;Humidity;BMP_temperature;BMP_pressure;BME280_temperature;BME280_humidity;BME280_pressure;Samples;Min_cycle;Max_cycle;Signal;HPM_P1;HPM_P2
2021/12/22 00:01:06;;;;;;;72.28;32.38;;;;;;;0.74;75.93;102750.75;4939705;28;20201;-57
2021/12/22 00:03:32;;;;;;;66.35;31.48;;;;;;;0.71;75.91;102745.41;4939357;28;20351;-58
2021/12/22 00:05:57;;;;;;;71.18;31.98;;;;;;;0.72;76.09;102747.19;4952354;28;20702;-56
2021/12/22 00:08:25;;;;;;;69.45;31.75;;;;;;;0.74;75.67;102745.63;4943280;28;20043;-56
2021/12/22 00:10:50;;;;;;;63.55;31.65;;;;;;;0.68;76.13;102739.09;4933668;28;20556;-56
2021/12/22 00:13:15;;;;;;;65.60;31.67;;;;;;;0.59;76.02;102734.13;4942737;28;20046;-60
2021/12/22 00:15:41;;;;;;;66.78;31.88;;;;;;;0.64;76.10;102734.47;4928439;28;20438;-56
2021/12/22 00:18:07;;;;;;;81.50;33.67;;;;;;;0.60;76.60;102735.00;4944172;28;20461;-58
2021/12/22 00:20:32;;;;;;;63.95;31.00;;;;;;;0.62;76.16;102726.66;4938407;28;20057;-56
2021/12/22 00:22:58;;;;;;;63.78;31.50;;;;;;;0.69;76.67;102715.22;4956416;28;20109;-58
2021/12/22 00:25:25;;;;;;;72.22;32.38;;;;;;;0.69;75.95;102722.91;4938986;28;20054;-58
2021/12/22 00:27:56;;;;;;;67.45;31.92;;;;;;;0.64;75.80;102714.84;4939009;28;20379;-57
2021/12/22 00:30:24;;;;;;;65.75;30.98;;;;;;;0.63;76.27;102717.28;4933136;28;20039;-58
2021/12/22 00:32:52;;;;;;;63.80;31.10;;;;;;;0.68;76.26;102726.25;4943573;28;20577;-57
2021/12/22 00:35:20;;;;;;;72.68;32.72;;;;;;;0.59;75.97;102721.28;4944968;28;20054;-56
2021/12/22 00:37:46;;;;;;;72.82;31.98;;;;;;;0.63;75.82;102720.75;4938947;28;20077;-57
2021/12/22 00:40:11;;;;;;;71.28;32.72;;;;;;;0.62;75.75;102724.09;4928610;28;20122;-58
2021/12/22 00:42:45;;;;;;;66.07;31.50;;;;;;;0.60;75.41;102728.22;4942674;28;20093;-57
2021/12/22 00:45:11;;;;;;;69.18;31.60;;;;;;;0.58;76.14;102723.72;4940060;28;20023;-56
2021/12/22 00:47:36;;;;;;;67.35;30.08;;;;;;;0.64;76.10;102727.69;4954662;28;20069;-58
2021/12/22 00:50:03;;;;;;;59.05;29.35;;;;;;;0.62;75.70;102720.63;4939088;28;20038;-57
2021/12/22 00:52:29;;;;;;;65.68;29.98;;;;;;;0.56;75.79;102714.97;4940505;28;20046;-54
2021/12/22 00:54:55;;;;;;;67.45;29.33;;;;;;;0.49;75.79;102720.41;4938721;28;20066;-58
2021/12/22 00:57:20;;;;;;;72.72;29.92;;;;;;;0.53;75.75;102728.47;4934811;28;20058;-55
2021/12/22 00:59:47;;;;;;;66.10;30.88;;;;;;;0.50;75.99;102735.91;4936828;28;20618;-57
2021/12/22 01:02:15;;;;;;;68.13;29.75;;;;;;;0.55;76.04;102728.59;4943608;28;20043;-57
2021/12/22 01:04:41;;;;;;;66.68;29.60;;;;;;;0.52;75.79;102738.59;4944220;28;20053;-58
2021/12/22 01:07:07;;;;;;;64.38;28.60;;;;;;;0.49;75.47;102738.38;4941240;28;20137;-57
2021/12/22 01:09:33;;;;;;;62.70;28.83;;;;;;;0.44;75.65;102734.50;4929495;28;20043;-59
2021/12/22 01:11:59;;;;;;;74.03;30.63;;;;;;;0.39;75.55;102740.16;4941120;28;20372;-57
2021/12/22 01:14:25;;;;;;;67.43;30.52;;;;;;;0.38;76.03;102743.47;4935325;28;20499;-55
2021/12/22 01:16:53;;;;;;;72.45;30.95;;;;;;;0.36;76.17;102745.03;4938239;28;20372;-57
2021/12/22 01:19:27;;;;;;;74.25;31.02;;;;;;;0.39;76.37;102739.25;4942849;28;20145;-58
2021/12/22 01:22:02;;;;;;;71.95;29.80;;;;;;;0.44;75.89;102732.81;4926966;28;20355;-57
2021/12/22 01:24:34;;;;;;;70.85;30.30;;;;;;;0.43;76.15;102742.97;4939069;28;20447;-56
2021/12/22 01:27:07;;;;;;;69.13;29.67;;;;;;;0.44;75.98;102743.09;4941049;28;20164;-58
2021/12/22 01:29:34;;;;;;;66.88;29.83;;;;;;;0.38;75.57;102743.47;4937139;28;20054;-59
2021/12/22 01:32:00;;;;;;;59.50;26.85;;;;;;;0.40;75.37;102734.25;4938069;28;20054;-55
2021/12/22 01:34:30;;;;;;;64.70;28.35;;;;;;;0.30;75.36;102739.41;4943118;28;20403;-57
2021/12/22 01:36:56;;;;;;;65.10;27.27;;;;;;;0.34;75.22;102733.75;4943238;28;20478;-56
2021/12/22 01:39:22;;;;;;;69.32;29.10;;;;;;;0.27;75.38;102735.66;4934263;28;20077;-56
2021/12/22 01:41:47;;;;;;;68.85;29.50;;;;;;;0.26;75.71;102733.84;4932526;28;20399;-56
2021/12/22 01:44:26;;;;;;;64.35;29.25;;;;;;;0.20;75.39;102728.19;4936591;28;20050;-55
2021/12/22 01:49:50;;;;;;;65.00;27.83;;;;;;;0.17;75.47;102723.72;4921668;28;20128;-56
2021/12/22 01:52:20;;;;;;;75.10;29.30;;;;;;;0.22;76.24;102724.13;4934407;28;20563;-55
2021/12/22 01:55:05;;;;;;;71.05;29.20;;;;;;;0.21;75.82;102712.94;4933991;28;20544;-57
2021/12/22 01:57:33;;;;;;;65.07;27.45;;;;;;;0.20;75.75;102708.59;4935560;28;20046;-59
2021/12/22 02:00:01;;;;;;;75.78;30.98;;;;;;;0.23;76.16;102713.09;4938593;28;20802;-56
2021/12/22 02:02:26;;;;;;;72.32;28.95;;;;;;;0.20;75.83;102717.94;4938757;28;20577;-57
2021/12/22 02:04:52;;;;;;;66.13;26.98;;;;;;;0.19;75.68;102714.47;4940450;28;20313;-54
2021/12/22 02:07:17;;;;;;;70.60;29.00;;;;;;;0.17;76.23;102718.59;4956472;28;20545;-58
2021/12/22 02:10:05;;;;;;;72.65;30.45;;;;;;;0.18;76.37;102717.84;4925539;28;20331;-57
2021/12/22 02:12:35;;;;;;;65.43;27.88;;;;;;;0.18;76.28;102712.72;4936509;28;20051;-57
2021/12/22 02:15:02;;;;;;;69.07;29.58;;;;;;;0.19;76.12;102716.16;4934143;28;21079;-58
2021/12/22 02:17:28;;;;;;;66.70;27.50;;;;;;;0.15;76.20;102720.13;4940147;28;20046;-55
2021/12/22 02:19:53;;;;;;;62.25;26.67;;;;;;;0.11;75.93;102724.88;4928439;28;20085;-57
2021/12/22 02:22:19;;;;;;;66.03;27.45;;;;;;;0.07;75.17;102727.94;4938560;28;20256;-56
2021/12/22 02:24:50;;;;;;;61.45;26.35;;;;;;;0.04;74.92;102725.13;4933668;28;20049;-57
2021/12/22 02:27:23;;;;;;;61.53;26.05;;;;;;;-0.03;74.97;102740.00;4940316;28;20128;-58
2021/12/22 02:29:49;;;;;;;77.30;31.00;;;;;;;-0.10;75.40;102735.09;4931836;28;20473;-56
2021/12/22 02:32:36;;;;;;;64.03;28.98;;;;;;;-0.12;75.57;102738.28;4940223;28;20134;-56
2021/12/22 02:35:03;;;;;;;69.55;29.13;;;;;;;-0.14;75.75;102735.63;4940430;28;20878;-57
2021/12/22 02:37:30;;;;;;;66.00;28.17;;;;;;;-0.13;76.24;102737.41;4930885;28;20054;-56
2021/12/22 02:40:10;;;;;;;65.82;27.05;;;;;;;-0.10;75.86;102737.66;4933124;28;20038;-56
2021/12/22 02:42:35;;;;;;;60.97;26.38;;;;;;;-0.16;75.76;102741.38;4942635;28;20059;-58
2021/12/22 02:45:09;;;;;;;65.13;27.00;;;;;;;-0.21;75.20;102745.19;4942705;28;20050;-59
2021/12/22 02:47:34;;;;;;;67.78;28.48;;;;;;;-0.26;75.44;102738.78;4932035;28;20078;-59
2021/12/22 02:49:59;;;;;;;57.08;26.17;;;;;;;-0.26;75.21;102739.69;4930224;28;20321;-56
2021/12/22 02:52:32;;;;;;;61.55;25.05;;;;;;;-0.24;75.39;102735.56;4930759;28;20050;-58
2021/12/22 02:54:57;;;;;;;60.88;26.15;;;;;;;-0.27;75.37;102734.41;4942569;28;20042;-56
2021/12/22 02:57:36;;;;;;;53.85;25.02;;;;;;;-0.25;74.71;102731.25;4934875;28;20066;-57
2021/12/22 03:05:30;;;;;;;55.33;23.00;;;;;;;-0.34;74.51;102730.44;4939214;28;20049;-56
2021/12/22 03:07:56;;;;;;;52.08;22.92;;;;;;;-0.41;74.70;102733.22;4929514;28;20052;-56
2021/12/22 03:10:23;;;;;;;66.95;27.48;;;;;;;-0.42;75.06;102732.31;4926856;28;20121;-57
2021/12/22 03:12:55;;;;;;;60.63;26.25;;;;;;;-0.44;75.18;102735.53;4933148;28;20077;-57
2021/12/22 03:15:21;;;;;;;67.45;27.05;;;;;;;-0.49;75.32;102717.19;4940069;28;20070;-56
2021/12/22 03:17:48;;;;;;;59.97;25.73;;;;;;;-0.46;75.67;102725.16;4927962;28;20915;-55
2021/12/22 03:20:15;;;;;;;61.08;25.10;;;;;;;-0.42;75.22;102718.59;4935134;28;20059;-56
2021/12/22 03:22:43;;;;;;;67.40;26.42;;;;;;;-0.42;75.55;102716.94;4938885;28;20054;-54
2021/12/22 03:25:17;;;;;;;58.45;25.58;;;;;;;-0.38;75.71;102722.34;4935329;28;20285;-56
2021/12/22 03:27:45;;;;;;;66.85;26.50;;;;;;;-0.30;75.45;102726.44;4924354;28;20522;-57
2021/12/22 03:30:11;;;;;;;62.10;27.00;;;;;;;-0.32;75.14;102715.19;4936963;28;20057;-55
2021/12/22 03:32:37;;;;;;;65.38;26.42;;;;;;;-0.31;75.10;102712.78;4937715;28;20129;-56
2021/12/22 03:35:03;;;;;;;69.18;26.30;;;;;;;-0.33;75.51;102715.94;4933876;28;20057;-55
2021/12/22 03:37:28;;;;;;;70.82;28.63;;;;;;;-0.32;75.65;102712.63;4931481;28;20130;-54
2021/12/22 03:39:54;;;;;;;62.58;25.95;;;;;;;-0.26;75.57;102711.50;4935927;28;20450;-55
2021/12/22 03:42:19;;;;;;;76.00;30.58;;;;;;;-0.22;76.45;102718.66;4932442;28;20105;-56
2021/12/22 03:44:45;;;;;;;77.70;30.02;;;;;;;-0.13;76.24;102716.00;4939869;28;20042;-57
2021/12/22 03:47:11;;;;;;;73.93;29.30;;;;;;;-0.13;76.21;102711.78;4937128;28;20039;-57
2021/12/22 03:49:36;;;;;;;80.40;30.02;;;;;;;-0.14;76.66;102702.28;4929962;28;20138;-57
2021/12/22 03:52:03;;;;;;;74.40;31.17;;;;;;;-0.09;76.50;102707.81;4941095;28;20047;-56
2021/12/22 03:54:28;;;;;;;78.60;30.83;;;;;;;-0.05;76.75;102704.72;4936148;28;20133;-56
2021/12/22 03:56:54;;;;;;;72.85;29.63;;;;;;;-0.07;76.30;102702.06;4935853;28;20037;-56
2021/12/22 03:59:19;;;;;;;76.13;29.58;;;;;;;-0.08;76.68;102696.78;4933128;28;20403;-56
2021/12/22 04:01:46;;;;;;;72.78;29.48;;;;;;;-0.13;76.59;102693.84;4927113;28;20952;-55
2021/12/22 04:04:15;;;;;;;66.43;28.42;;;;;;;-0.10;76.31;102698.31;4935404;28;20474;-55
2021/12/22 04:06:42;;;;;;;72.85;28.92;;;;;;;-0.13;76.41;102696.41;4932059;28;20046;-57
2021/12/22 04:09:08;;;;;;;73.50;30.08;;;;;;;-0.14;76.69;102697.16;4936509;28;20042;-55
2021/12/22 04:11:33;;;;;;;74.43;30.17;;;;;;;-0.16;76.59;102687.53;4925084;28;20120;-56
2021/12/22 04:13:59;;;;;;;69.35;29.95;;;;;;;-0.16;76.43;102692.66;4935045;28;20065;-56
2021/12/22 04:16:24;;;;;;;70.75;28.65;;;;;;;-0.17;76.62;102693.41;4941100;28;20050;-56
2021/12/22 04:18:50;;;;;;;71.90;30.17;;;;;;;-0.17;77.09;102688.28;4940490;28;20055;-56
2021/12/22 04:21:15;;;;;;;70.07;29.35;;;;;;;-0.14;76.66;102686.00;4931466;28;20043;-56
2021/12/22 04:23:40;;;;;;;70.70;29.40;;;;;;;-0.14;76.64;102675.75;4931206;28;20050;-54
2021/12/22 04:26:06;;;;;;;71.57;29.67;;;;;;;-0.18;76.61;102678.81;4932555;28;20030;-56
2021/12/22 04:28:31;;;;;;;71.28;28.35;;;;;;;-0.17;76.56;102673.81;4937937;28;20046;-55
2021/12/22 04:30:57;;;;;;;75.93;29.70;;;;;;;-0.22;76.41;102680.22;4931482;28;20154;-56
2021/12/22 04:33:22;;;;;;;69.32;28.98;;;;;;;-0.21;76.65;102671.78;4938299;28;20050;-56
2021/12/22 04:35:49;;;;;;;68.85;29.00;;;;;;;-0.13;76.45;102678.47;4934668;28;20543;-53
2021/12/22 04:38:14;;;;;;;70.60;28.27;;;;;;;-0.16;76.12;102670.50;4936889;28;20450;-55
2021/12/22 04:40:40;;;;;;;64.00;28.55;;;;;;;-0.18;76.39;102677.16;4937932;28;20117;-55
2021/12/22 04:43:06;;;;;;;66.45;28.38;;;;;;;-0.16;76.20;102672.16;4926784;28;20553;-55
2021/12/22 04:45:31;;;;;;;69.30;28.00;;;;;;;-0.22;76.46;102667.41;4932625;28;20778;-52
2021/12/22 04:47:57;;;;;;;68.28;28.48;;;;;;;-0.24;76.55;102663.81;4933008;28;20550;-57
2021/12/22 04:50:23;;;;;;;66.25;27.95;;;;;;;-0.27;75.96;102660.09;4939744;28;20055;-53
2021/12/22 04:53:08;;;;;;;60.92;27.23;;;;;;;-0.27;76.17;102660.09;4944346;28;20395;-57
2021/12/22 04:55:34;;;;;;;71.78;28.17;;;;;;;-0.25;76.32;102656.00;4925999;28;20156;-55
2021/12/22 04:58:01;;;;;;;70.55;28.75;;;;;;;-0.26;76.08;102651.66;4944620;28;20478;-55
2021/12/22 05:00:29;;;;;;;67.28;27.52;;;;;;;-0.27;76.13;102661.00;4931625;28;20406;-57
2021/12/22 05:02:55;;;;;;;70.63;27.88;;;;;;;-0.30;76.26;102650.47;4936162;28;20519;-56
2021/12/22 05:05:21;;;;;;;66.45;27.92;;;;;;;-0.30;76.14;102647.91;4933245;28;20031;-56
2021/12/22 05:07:47;;;;;;;76.78;28.15;;;;;;;-0.29;75.96;102643.69;4936121;28;21211;-55
2021/12/22 05:10:15;;;;;;;74.35;27.88;;;;;;;-0.33;76.50;102644.19;4936565;28;20117;-57
2021/12/22 05:12:41;;;;;;;65.80;27.52;;;;;;;-0.30;76.31;102642.78;4937531;28;20613;-56
2021/12/22 05:15:07;;;;;;;71.10;28.30;;;;;;;-0.30;76.14;102639.31;4933825;28;20046;-57
2021/12/22 05:20:11;;;;;;;67.60;28.15;;;;;;;-0.38;76.38;102642.91;4935723;28;20041;-58
2021/12/22 05:22:37;;;;;;;67.28;27.67;;;;;;;-0.37;76.44;102635.38;4938346;28;20051;-56
2021/12/22 05:25:08;;;;;;;68.45;28.77;;;;;;;-0.43;76.37;102645.97;4956631;28;20331;-57
2021/12/22 05:27:34;;;;;;;78.05;28.67;;;;;;;-0.44;76.33;102644.19;4924565;28;20038;-56
2021/12/22 05:30:00;;;;;;;70.22;27.58;;;;;;;-0.45;76.18;102642.41;4929811;28;20477;-55
2021/12/22 05:32:31;;;;;;;69.63;26.80;;;;;;;-0.46;75.97;102647.38;4939969;28;20129;-55
2021/12/22 05:34:57;;;;;;;77.13;28.13;;;;;;;-0.50;76.32;102646.25;4932286;28;21303;-56
2021/12/22 05:37:23;;;;;;;73.88;28.10;;;;;;;-0.52;76.19;102650.31;4956998;28;20031;-58
2021/12/22 05:39:48;;;;;;;68.70;28.48;;;;;;;-0.47;75.98;102645.59;4932030;28;20051;-56
2021/12/22 05:42:13;;;;;;;69.30;28.55;;;;;;;-0.53;76.41;102640.84;4932570;28;20603;-56
2021/12/22 05:44:39;;;;;;;74.13;28.45;;;;;;;-0.51;76.43;102646.09;4941754;28;20692;-55
2021/12/22 05:47:04;;;;;;;73.05;28.90;;;;;;;-0.57;76.63;102649.03;4922039;28;20110;-56
2021/12/22 05:49:30;;;;;;;74.20;28.20;;;;;;;-0.54;76.55;102653.50;4940096;28;20042;-56
2021/12/22 05:51:56;;;;;;;66.75;28.05;;;;;;;-0.54;76.77;102645.81;4927496;28;20053;-56
2021/12/22 05:54:21;;;;;;;70.18;28.17;;;;;;;-0.47;76.56;102646.47;4943366;28;20129;-56
2021/12/22 05:56:46;;;;;;;70.22;28.05;;;;;;;-0.49;76.38;102640.31;4952292;28;20086;-56
2021/12/22 05:59:12;;;;;;;69.82;28.50;;;;;;;-0.54;76.67;102645.81;4943692;28;20502;-56
2021/12/22 06:01:37;;;;;;;74.75;29.45;;;;;;;-0.54;76.50;102638.13;4924915;28;20443;-57
2021/12/22 06:04:03;;;;;;;72.85;29.23;;;;;;;-0.60;76.96;102640.16;4940087;28;20055;-53
2021/12/22 06:06:29;;;;;;;73.65;29.77;;;;;;;-0.53;76.85;102645.97;4936582;28;20035;-54
2021/12/22 06:08:55;;;;;;;73.10;28.38;;;;;;;-0.53;76.88;102645.97;4936407;28;20043;-56
2021/12/22 06:11:30;;;;;;;75.35;29.02;;;;;;;-0.53;76.38;102650.19;4935839;28;20081;-57
2021/12/22 06:13:57;;;;;;;74.00;28.65;;;;;;;-0.57;76.39;102641.34;4938990;28;20110;-56
2021/12/22 06:16:23;;;;;;;72.93;28.42;;;;;;;-0.53;76.57;102640.84;4938326;28;20096;-56
2021/12/22 06:18:55;;;;;;;75.47;28.48;;;;;;;-0.53;76.28;102637.38;4939243;28;20055;-56
2021/12/22 06:21:20;;;;;;;73.53;28.60;;;;;;;-0.52;76.45;102637.50;4939724;28;20055;-55
2021/12/22 06:23:45;;;;;;;67.45;27.83;;;;;;;-0.54;76.49;102640.69;4931148;28;20460;-55
2021/12/22 06:26:11;;;;;;;74.13;29.75;;;;;;;-0.55;76.20;102637.22;4939821;28;20053;-55
2021/12/22 06:28:36;;;;;;;69.88;28.23;;;;;;;-0.58;76.52;102633.53;4939757;28;20057;-56
2021/12/22 06:31:03;;;;;;;70.18;27.67;;;;;;;-0.55;75.83;102639.78;4939438;28;20047;-56
2021/12/22 06:33:28;;;;;;;72.55;28.70;;;;;;;-0.59;76.31;102636.84;4941142;28;20038;-56
2021/12/22 06:35:54;;;;;;;74.85;28.75;;;;;;;-0.62;76.04;102634.03;4934831;28;20137;-55
2021/12/22 06:38:19;;;;;;;75.85;29.30;;;;;;;-0.64;76.36;102631.34;4942524;28;20039;-56
2021/12/22 06:40:44;;;;;;;72.93;28.38;;;;;;;-0.63;76.13;102638.25;4930087;28;20042;-57
2021/12/22 06:43:10;;;;;;;73.38;28.75;;;;;;;-0.61;76.36;102640.97;4935916;28;20047;-56
2021/12/22 06:45:35;;;;;;;65.03;27.60;;;;;;;-0.64;76.43;102636.47;4933544;28;20182;-56
2021/12/22 06:48:01;;;;;;;70.68;28.85;;;;;;;-0.65;76.30;102636.31;4939574;28;20078;-55
2021/12/22 06:50:26;;;;;;;73.82;28.48;;;;;;;-0.65;76.55;102633.75;4929114;28;20130;-55
2021/12/22 06:52:51;;;;;;;71.47;27.10;;;;;;;-0.69;76.68;102642.84;4935908;28;20035;-55
2021/12/22 06:55:17;;;;;;;68.75;28.25;;;;;;;-0.71;76.56;102629.00;4938723;28;20379;-57
2021/12/22 06:57:42;;;;;;;73.40;28.70;;;;;;;-0.62;76.98;102636.59;4931151;28;20051;-57
2021/12/22 07:00:10;;;;;;;70.97;29.05;;;;;;;-0.63;76.67;102640.81;4939848;28;20043;-56
2021/12/22 07:02:37;;;;;;;68.63;28.88;;;;;;;-0.58;76.75;102641.22;4935616;28;20501;-57
2021/12/22 07:05:05;;;;;;;67.00;27.88;;;;;;;-0.57;76.58;102641.34;4936931;28;20043;-56
2021/12/22 07:07:30;;;;;;;63.72;25.83;;;;;;;-0.57;76.28;102633.66;4931219;28;20557;-55
2021/12/22 07:09:56;;;;;;;63.55;25.98;;;;;;;-0.64;75.86;102630.44;4930899;28;20086;-55
2021/12/22 07:12:21;;;;;;;71.07;28.33;;;;;;;-0.68;76.03;102625.84;4938396;28;20352;-55
2021/12/22 07:14:49;;;;;;;77.05;28.77;;;;;;;-0.69;76.22;102619.81;4931329;28;20111;-58
2021/12/22 07:17:14;;;;;;;68.50;28.33;;;;;;;-0.63;76.25;102617.78;4939747;28;20042;-53
2021/12/22 07:19:39;;;;;;;71.05;28.23;;;;;;;-0.71;76.65;102623.00;4924923;28;20140;-55
2021/12/22 07:22:05;;;;;;;71.28;27.60;;;;;;;-0.64;76.32;102623.66;4934980;28;20047;-53
2021/12/22 07:24:31;;;;;;;70.68;28.42;;;;;;;-0.67;76.12;102612.25;4938901;28;20216;-55
2021/12/22 07:26:56;;;;;;;73.95;29.33;;;;;;;-0.71;76.43;102611.09;4932760;28;20078;-57
2021/12/22 07:29:22;;;;;;;66.03;28.23;;;;;;;-0.77;76.38;102610.56;4933280;28;20384;-57
2021/12/22 07:31:47;;;;;;;74.18;29.88;;;;;;;-0.79;76.75;102609.50;4915247;28;21383;-56
2021/12/22 07:34:20;;;;;;;72.68;28.80;;;;;;;-0.67;76.66;102609.69;4934031;28;20089;-56
2021/12/22 07:37:08;;;;;;;70.05;28.73;;;;;;;-0.67;76.75;102612.25;4938216;28;20041;-53
2021/12/22 07:39:34;;;;;;;67.78;28.10;;;;;;;-0.70;76.70;102612.88;4931509;28;20046;-55
2021/12/22 07:41:59;;;;;;;73.70;28.67;;;;;;;-0.61;76.85;102608.53;4930752;28;20359;-56
2021/12/22 07:44:24;;;;;;;71.28;29.05;;;;;;;-0.67;76.40;102607.13;4934117;28;20058;-54
2021/12/22 07:46:50;;;;;;;74.40;28.98;;;;;;;-0.72;76.84;102609.28;4938605;28;20592;-54
2021/12/22 07:49:15;;;;;;;76.63;29.40;;;;;;;-0.64;76.97;102617.63;4942712;28;20649;-57
2021/12/22 07:51:40;;;;;;;76.22;28.70;;;;;;;-0.63;76.48;102616.88;4925923;28;20058;-58
2021/12/22 07:54:07;;;;;;;74.22;28.30;;;;;;;-0.54;76.45;102613.41;4939611;28;20047;-56
2021/12/22 07:56:33;;;;;;;65.88;28.55;;;;;;;-0.57;76.30;102619.97;4936498;28;20367;-56
2021/12/22 07:59:07;;;;;;;83.25;29.70;;;;;;;-0.58;76.21;102619.06;4932876;28;20047;-56
2021/12/22 08:01:32;;;;;;;79.03;30.35;;;;;;;-0.51;75.98;102630.72;4933551;28;20054;-59
2021/12/22 08:03:59;;;;;;;75.05;29.00;;;;;;;-0.53;75.80;102630.59;4940065;28;20553;-57
2021/12/22 08:06:24;;;;;;;74.65;30.00;;;;;;;-0.51;75.84;102631.63;4930389;28;20463;-54
2021/12/22 08:08:49;;;;;;;72.00;29.08;;;;;;;-0.51;75.64;102626.50;4932853;28;20047;-57
2021/12/22 08:11:15;;;;;;;69.70;28.23;;;;;;;-0.51;75.68;102636.75;4933421;28;20050;-53
2021/12/22 08:13:40;;;;;;;70.32;29.38;;;;;;;-0.52;75.89;102634.06;4930655;28;20462;-56
2021/12/22 08:16:06;;;;;;;71.72;29.60;;;;;;;-0.44;75.63;102621.16;4922691;28;20055;-56
2021/12/22 08:18:32;;;;;;;73.85;29.60;;;;;;;-0.42;76.00;102627.28;4932907;28;20043;-55
2021/12/22 08:20:57;;;;;;;72.53;30.60;;;;;;;-0.37;75.98;102621.66;4935050;28;20042;-55
2021/12/22 08:23:22;;;;;;;72.25;29.48;;;;;;;-0.31;76.17;102627.31;4938287;28;20050;-54
2021/12/22 08:25:48;;;;;;;71.43;30.33;;;;;;;-0.25;75.96;102618.47;4932883;28;20411;-56
2021/12/22 08:28:14;;;;;;;72.20;31.83;;;;;;;-0.22;76.25;102630.63;4929887;28;20301;-56
2021/12/22 08:30:39;;;;;;;72.32;29.60;;;;;;;-0.14;75.81;102620.25;4940360;28;20411;-55
2021/12/22 08:33:09;;;;;;;66.03;29.15;;;;;;;-0.11;76.17;102619.59;4933813;28;20138;-56
2021/12/22 08:38:50;;;;;;;71.15;30.55;;;;;;;-0.04;75.98;102621.91;4933696;28;20669;-53
2021/12/22 08:41:06;;;;;;;64.70;30.17;;;;;;;0.07;75.81;102610.88;4943811;28;20105;-59
2021/12/22 08:43:31;;;;;;;70.55;29.92;;;;;;;0.12;76.28;102612.19;4938153;28;20486;-54
2021/12/22 08:45:56;;;;;;;64.72;29.27;;;;;;;0.20;75.83;102613.69;4936245;28;20061;-55
2021/12/22 08:48:22;;;;;;;62.42;27.80;;;;;;;0.33;75.62;102608.78;4937975;28;20047;-58
2021/12/22 08:50:47;;;;;;;63.50;28.10;;;;;;;0.43;75.60;102604.44;4933430;28;20061;-58
2021/12/22 08:53:12;;;;;;;66.35;29.38;;;;;;;0.44;75.99;102606.19;4939051;28;20047;-56
2021/12/22 08:55:38;;;;;;;71.25;28.92;;;;;;;0.53;75.88;102609.53;4916938;28;20047;-55
2021/12/22 08:58:03;;;;;;;64.47;30.38;;;;;;;0.61;75.75;102608.50;4952537;28;20125;-58
2021/12/22 09:00:31;;;;;;;65.75;29.63;;;;;;;0.67;76.01;102604.72;4932887;28;20498;-57
2021/12/22 09:02:56;;;;;;;57.95;28.92;;;;;;;0.75;75.73;102605.34;4931308;28;20142;-56
2021/12/22 09:05:23;;;;;;;66.38;28.73;;;;;;;0.86;75.84;102601.06;4936148;28;20042;-54
2021/12/22 09:07:48;;;;;;;61.90;28.33;;;;;;;0.95;75.86;102606.94;4928023;28;20043;-55
2021/12/22 09:10:14;;;;;;;58.60;27.92;;;;;;;1.04;75.35;102613.69;4942493;28;20085;-54
2021/12/22 09:12:39;;;;;;;57.50;26.98;;;;;;;1.12;75.35;102622.91;4940757;28;20061;-56
2021/12/22 09:15:05;;;;;;;57.90;27.30;;;;;;;1.20;74.96;102626.97;4936731;28;20887;-57
2021/12/22 09:17:30;;;;;;;52.97;25.77;;;;;;;1.29;74.99;102619.06;4931217;28;20460;-52
2021/12/22 09:19:56;;;;;;;53.72;26.88;;;;;;;1.38;74.99;102618.91;4918478;28;20035;-56
2021/12/22 09:22:21;;;;;;;53.20;25.30;;;;;;;1.40;74.23;102614.78;4935934;28;20288;-57
2021/12/22 09:24:47;;;;;;;54.58;25.20;;;;;;;1.41;74.12;102616.56;4931573;28;20528;-56
2021/12/22 09:27:14;;;;;;;52.55;25.15;;;;;;;1.39;74.26;102603.63;4938300;28;20553;-57
2021/12/22 09:29:39;;;;;;;52.63;25.65;;;;;;;1.39;73.93;102611.31;4929750;28;20034;-56
2021/12/22 09:32:05;;;;;;;56.03;24.63;;;;;;;1.37;74.18;102609.41;4939461;28;20051;-55
2021/12/22 09:34:31;;;;;;;52.95;26.65;;;;;;;1.34;73.89;102612.66;4936339;28;20043;-56
2021/12/22 09:36:56;;;;;;;54.72;26.25;;;;;;;1.30;74.04;102607.13;4929748;28;20049;-55
2021/12/22 09:39:21;;;;;;;56.35;25.98;;;;;;;1.28;74.40;102607.00;4934280;28;20043;-56
2021/12/22 09:41:47;;;;;;;56.20;25.95;;;;;;;1.29;74.45;102606.22;4926653;28;20680;-55
2021/12/22 09:44:12;;;;;;;62.60;26.48;;;;;;;1.28;74.38;102607.00;4935589;28;20039;-55
2021/12/22 09:46:40;;;;;;;51.67;25.23;;;;;;;1.36;75.03;102613.66;4936038;28;20595;-56
2021/12/22 09:49:19;;;;;;;57.10;25.90;;;;;;;1.50;74.59;102604.44;4931782;28;20141;-56
2021/12/22 09:52:27;;;;;;;67.85;27.83;;;;;;;1.60;74.66;102605.25;4941711;28;20104;-56
2021/12/22 09:54:32;;;;;;;61.78;25.70;;;;;;;1.72;74.53;102601.81;4935409;28;20727;-54
2021/12/22 09:56:58;;;;;;;48.72;25.20;;;;;;;1.87;74.35;102597.84;4936538;28;20086;-55
2021/12/22 09:59:24;;;;;;;285.33;34.90;;;;;;;1.92;74.36;102597.44;4925970;28;20481;-55
2021/12/22 10:01:49;;;;;;;92.10;25.33;;;;;;;1.95;73.85;102600.22;4930138;28;20186;-53
2021/12/22 10:04:16;;;;;;;54.92;23.83;;;;;;;1.95;73.86;102597.63;4933678;28;20047;-54
2021/12/22 10:06:42;;;;;;;48.97;23.20;;;;;;;2.00;73.04;102598.91;4937124;28;20078;-53
2021/12/22 10:09:07;;;;;;;45.00;22.80;;;;;;;2.10;73.72;102587.63;4930624;28;20406;-58
2021/12/22 10:11:34;;;;;;;43.50;23.50;;;;;;;2.20;74.30;102590.06;4928300;28;20039;-60
2021/12/22 10:14:00;;;;;;;48.10;24.00;;;;;;;2.21;74.05;102589.28;4933789;28;20047;-56
2021/12/22 10:16:27;;;;;;;46.20;23.88;;;;;;;2.28;73.40;102595.78;4926283;28;20277;-56
2021/12/22 10:19:09;;;;;;;46.70;24.10;;;;;;;2.29;73.35;102589.88;4934817;28;20043;-54
2021/12/22 10:21:37;;;;;;;50.13;24.35;;;;;;;2.38;72.69;102588.84;4929725;28;20093;-59
2021/12/22 10:24:05;;;;;;;49.83;23.20;;;;;;;2.39;73.58;102584.59;4929067;28;20101;-56
2021/12/22 10:26:30;;;;;;;49.28;22.90;;;;;;;2.43;72.97;102594.38;4934918;28;20051;-56
2021/12/22 10:28:59;;;;;;;50.58;22.95;;;;;;;2.48;72.24;102585.28;4925782;28;20430;-57
2021/12/22 10:31:42;;;;;;;48.97;23.20;;;;;;;2.50;72.19;102590.56;4933483;28;20139;-56
2021/12/22 10:34:11;;;;;;;48.28;23.23;;;;;;;2.54;71.83;102582.28;4955178;28;20035;-57
2021/12/22 10:36:46;;;;;;;46.15;22.88;;;;;;;2.64;73.18;102587.28;4918466;28;20126;-58
2021/12/22 10:39:25;;;;;;;47.40;22.40;;;;;;;2.66;72.92;102588.31;4935456;28;20035;-56
2021/12/22 10:41:52;;;;;;;45.25;21.63;;;;;;;2.65;71.76;102584.84;4920711;28;20046;-56
2021/12/22 10:44:18;;;;;;;41.53;21.60;;;;;;;2.74;71.70;102584.63;4936650;28;20436;-57
2021/12/22 10:46:44;;;;;;;48.22;21.67;;;;;;;2.75;70.76;102581.22;4937579;28;20130;-55
2021/12/22 10:49:17;;;;;;;44.88;21.10;;;;;;;2.79;70.75;102585.84;4936586;28;20042;-55
2021/12/22 10:51:55;;;;;;;46.38;22.48;;;;;;;2.89;71.18;102580.53;4921426;28;20061;-57
2021/12/22 10:54:38;;;;;;;44.78;21.88;;;;;;;2.92;71.24;102575.63;4932832;28;20043;-55
2021/12/22 10:57:07;;;;;;;46.00;22.60;;;;;;;2.99;71.67;102575.25;4933336;28;20051;-56
2021/12/22 10:59:45;;;;;;;43.28;22.25;;;;;;;3.03;71.48;102569.53;4926908;28;20414;-60
2021/12/22 11:02:12;;;;;;;44.05;22.75;;;;;;;3.10;70.68;102565.72;4929841;28;20063;-56
2021/12/22 11:04:43;;;;;;;47.28;23.42;;;;;;;3.17;71.77;102571.38;4928383;28;21746;-57
2021/12/22 11:07:15;;;;;;;47.38;22.83;;;;;;;3.10;70.04;102568.28;4925864;28;20138;-57
2021/12/22 11:09:40;;;;;;;47.33;22.33;;;;;;;3.12;70.54;102554.72;4931565;28;20050;-58
2021/12/22 11:12:06;;;;;;;46.15;23.60;;;;;;;3.18;70.03;102549.09;4935056;28;20457;-59
2021/12/22 11:14:40;;;;;;;51.35;24.20;;;;;;;3.29;70.66;102539.56;4932747;28;20039;-57
2021/12/22 11:17:10;;;;;;;44.83;22.10;;;;;;;3.32;69.58;102539.75;4921608;28;20035;-56
2021/12/22 11:20:03;;;;;;;48.30;23.92;;;;;;;3.41;70.72;102546.44;4945481;28;20358;-58
2021/12/22 11:25:18;;;;;;;45.38;22.15;;;;;;;3.35;69.02;102533.13;4931294;28;20788;-57
2021/12/22 11:27:44;;;;;;;47.30;22.88;;;;;;;3.42;69.98;102531.84;4930138;28;20521;-57
2021/12/22 11:30:10;;;;;;;48.83;23.42;;;;;;;3.44;69.21;102532.84;4936692;28;20188;-58